Time;durP1;ratioP1;P1;durP2;ratioP2;P2;SDS_P1;SDS_P2;PMS_P1;PMS_P2;Temp;Humidity;BMP_temperature;BMP_pressure;BME280_temperature;BME280_humidity;BME280_pressure;Samples;Min_cycle;Max_cycle;Signal;HPM_P1;HPM_P2
2022/07/11 00:02:08;;;;;;;;;;;;;;;14.01;75.98;95262.09;5095602;28;1096;-47
2022/07/11 00:04:34;;;;;;;;;;;;;;;14.09;76.17;95269.25;5095321;28;1845;-47
2022/07/11 00:07:01;;;;;;;;;;;;;;;14.09;75.93;95266.56;5095616;28;965;-47
2022/07/11 00:09:27;;;;;;;;;;;;;;;14.10;75.79;95270.13;5095382;28;1865;-47
2022/07/11 00:11:53;;;;;;;;;;;;;;;14.04;76.63;95269.81;5095345;28;1972;-47
2022/07/11 00:14:21;;;;;;;;;;;;;;;14.02;76.42;95268.31;5095059;28;1242;-47
2022/07/11 00:16:47;;;;;;;;;;;;;;;14.03;76.59;95272.66;5095624;28;992;-47
2022/07/11 00:19:13;;;;;;;;;;;;;;;14.16;75.79;95269.38;5095285;28;957;-47
2022/07/11 00:21:40;;;;;;;;;;;;;;;14.14;75.93;95272.25;5095368;28;1008;-47
2022/07/11 00:24:07;;;;;;;;;;;;;;;14.03;75.98;95278.03;5095094;28;1063;-47
2022/07/11 00:26:33;;;;;;;;;;;;;;;14.11;76.03;95269.09;5095132;28;1057;-47
2022/07/11 00:28:59;;;;;;;;;;;;;;;14.03;75.77;95273.50;5095342;28;1024;-47
2022/07/11 00:31:26;;;;;;;;;;;;;;;14.15;76.27;95273.06;5095051;28;1909;-47
2022/07/11 00:33:52;;;;;;;;;;;;;;;14.33;75.17;95270.91;5095075;28;977;-48
2022/07/11 00:36:18;;;;;;;;;;;;;;;14.20;76.12;95271.53;5094885;28;1052;-47
2022/07/11 00:38:44;;;;;;;;;;;;;;;14.12;76.19;95274.28;5095059;28;1011;-47
2022/07/11 00:41:10;;;;;;;;;;;;;;;14.10;76.21;95278.19;5094779;28;981;-47
2022/07/11 00:43:37;;;;;;;;;;;;;;;14.00;76.35;95273.00;5107371;28;1240;-47
2022/07/11 00:46:04;;;;;;;;;;;;;;;13.75;76.87;95272.34;5097104;28;956;-47
2022/07/11 00:48:30;;;;;;;;;;;;;;;13.57;77.90;95280.72;5115370;28;1063;-47
2022/07/11 00:50:57;;;;;;;;;;;;;;;13.65;78.08;95275.28;5115005;28;1910;-47
2022/07/11 00:53:23;;;;;;;;;;;;;;;13.74;77.66;95279.59;5115115;28;989;-47
2022/07/11 00:55:49;;;;;;;;;;;;;;;13.86;77.34;95286.22;5114782;28;1024;-47
2022/07/11 00:58:15;;;;;;;;;;;;;;;13.82;78.26;95278.69;5115189;28;1047;-47
2022/07/11 01:00:41;;;;;;;;;;;;;;;13.96;77.74;95293.22;5114792;28;1196;-47
2022/07/11 01:03:07;;;;;;;;;;;;;;;13.97;77.30;95286.84;5115311;28;973;-47
2022/07/11 01:05:33;;;;;;;;;;;;;;;13.73;77.21;95291.34;5114658;28;1068;-47
2022/07/11 01:07:59;;;;;;;;;;;;;;;13.43;78.09;95296.56;5114854;28;1044;-47
2022/07/11 01:10:26;;;;;;;;;;;;;;;13.50;78.29;95293.16;5114521;28;1096;-47
2022/07/11 01:12:52;;;;;;;;;;;;;;;13.58;78.36;95287.72;5115031;28;1984;-47
2022/07/11 01:15:18;;;;;;;;;;;;;;;13.42;78.13;95284.13;5114338;28;1272;-47
2022/07/11 01:17:44;;;;;;;;;;;;;;;13.19;79.09;95289.41;5114817;28;1182;-47
2022/07/11 01:20:11;;;;;;;;;;;;;;;13.17;79.36;95298.66;5114436;28;1037;-47
2022/07/11 01:22:49;;;;;;;;;;;;;;;13.19;79.39;95289.41;5114626;28;969;-47
2022/07/11 01:25:29;;;;;;;;;;;;;;;13.29;79.24;95290.03;5114249;28;972;-47
2022/07/11 01:27:59;;;;;;;;;;;;;;;13.52;78.57;95275.00;5114524;28;1033;-47
2022/07/11 01:30:26;;;;;;;;;;;;;;;13.60;77.80;95267.75;5114280;28;1035;-47
2022/07/11 01:32:52;;;;;;;;;;;;;;;13.58;77.91;95282.38;5114297;28;1977;-47
2022/07/11 01:35:19;;;;;;;;;;;;;;;13.29;78.71;95283.81;5113833;28;1044;-47
2022/07/11 01:37:45;;;;;;;;;;;;;;;13.13;78.85;95275.81;5114256;28;1015;-47
2022/07/11 01:40:11;;;;;;;;;;;;;;;13.02;79.59;95279.75;5113997;28;1099;-47
2022/07/11 01:42:37;;;;;;;;;;;;;;;13.03;78.79;95278.72;5109742;28;1185;-47
2022/07/11 01:45:03;;;;;;;;;;;;;;;13.07;79.47;95280.91;5093559;28;1087;-47
2022/07/11 01:47:29;;;;;;;;;;;;;;;13.18;79.55;95286.88;5093873;28;1007;-47
2022/07/11 01:49:55;;;;;;;;;;;;;;;13.36;79.11;95281.31;5093636;28;992;-47
2022/07/11 01:52:21;;;;;;;;;;;;;;;13.37;78.92;95285.66;5093488;28;1917;-47
2022/07/11 01:54:48;;;;;;;;;;;;;;;13.30;79.46;95285.53;5093557;28;1020;-47
2022/07/11 01:57:14;;;;;;;;;;;;;;;13.28;79.26;95298.28;5093684;28;977;-47
2022/07/11 01:59:40;;;;;;;;;;;;;;;13.31;79.26;95300.63;5093770;28;984;-47
2022/07/11 02:02:06;;;;;;;;;;;;;;;13.35;78.75;95298.44;5093397;28;1012;-47
2022/07/11 02:04:32;;;;;;;;;;;;;;;13.32;78.66;95304.13;5093428;28;958;-47
2022/07/11 02:06:58;;;;;;;;;;;;;;;13.14;78.29;95296.31;5093284;28;1028;-47
2022/07/11 02:09:24;;;;;;;;;;;;;;;12.84;79.55;95293.34;5093403;28;986;-47
2022/07/11 02:11:50;;;;;;;;;;;;;;;13.01;79.32;95297.69;5093387;28;1913;-47
2022/07/11 02:14:16;;;;;;;;;;;;;;;13.03;79.89;95292.13;5093181;28;1278;-47
2022/07/11 02:16:42;;;;;;;;;;;;;;;13.02;79.66;95287.78;5093377;28;1000;-47
2022/07/11 02:19:10;;;;;;;;;;;;;;;12.94;80.59;95295.84;5093267;28;2058;-47
2022/07/11 02:21:36;;;;;;;;;;;;;;;13.03;80.38;95300.19;5093151;28;1067;-47
2022/07/11 02:24:03;;;;;;;;;;;;;;;13.07;79.97;95301.50;5093275;28;1040;-47
2022/07/11 02:26:29;;;;;;;;;;;;;;;13.25;79.08;95303.97;5093203;28;1029;-47
2022/07/11 02:28:55;;;;;;;;;;;;;;;13.25;79.29;95303.97;5093327;28;1024;-47
2022/07/11 02:31:21;;;;;;;;;;;;;;;13.21;79.04;95308.84;5093049;28;1913;-47
2022/07/11 02:33:47;;;;;;;;;;;;;;;13.15;79.29;95306.03;5093362;28;988;-47
2022/07/11 02:36:13;;;;;;;;;;;;;;;13.21;79.40;95314.22;5092794;28;1035;-47
2022/07/11 02:38:39;;;;;;;;;;;;;;;12.98;78.42;95308.78;5093236;28;1952;-47
2022/07/11 02:41:05;;;;;;;;;;;;;;;12.99;79.31;95310.44;5093369;28;974;-47
2022/07/11 02:43:31;;;;;;;;;;;;;;;13.21;78.84;95302.66;5105027;28;1170;-47
2022/07/11 02:45:57;;;;;;;;;;;;;;;13.28;79.04;95309.84;5113438;28;1048;-47
2022/07/11 02:48:23;;;;;;;;;;;;;;;13.29;78.88;95316.88;5113545;28;1016;-47
2022/07/11 02:50:49;;;;;;;;;;;;;;;13.11;78.70;95318.09;5113177;28;1949;-47
2022/07/11 02:53:15;;;;;;;;;;;;;;;13.13;78.77;95314.25;5114008;28;1843;-47
2022/07/11 02:55:41;;;;;;;;;;;;;;;13.17;78.71;95320.13;5117570;28;962;-47
2022/07/11 02:58:08;;;;;;;;;;;;;;;13.08;79.40;95324.69;5117378;28;1197;-47
2022/07/11 03:00:34;;;;;;;;;;;;;;;13.06;79.88;95322.16;5117309;28;1028;-47
2022/07/11 03:03:01;;;;;;;;;;;;;;;13.22;79.48;95323.09;5117104;28;977;-47
2022/07/11 03:05:27;;;;;;;;;;;;;;;13.17;79.59;95329.00;5116984;28;1057;-47
2022/07/11 03:07:53;;;;;;;;;;;;;;;13.08;80.00;95330.88;5117242;28;953;-47
2022/07/11 03:10:19;;;;;;;;;;;;;;;13.25;79.41;95342.41;5117271;28;975;-47
2022/07/11 03:12:45;;;;;;;;;;;;;;;13.23;79.72;95336.38;5116801;28;1981;-47
2022/07/11 03:15:12;;;;;;;;;;;;;;;13.30;80.04;95344.63;5116682;28;1233;-47
2022/07/11 03:17:38;;;;;;;;;;;;;;;13.32;80.42;95349.78;5116894;28;1040;-47
2022/07/11 03:20:05;;;;;;;;;;;;;;;13.39;80.52;95342.72;5116826;28;1040;-47
2022/07/11 03:22:31;;;;;;;;;;;;;;;13.52;79.59;95344.84;5116991;28;946;-47
2022/07/11 03:24:57;;;;;;;;;;;;;;;13.54;79.29;95351.72;5116880;28;1880;-47
2022/07/11 03:27:24;;;;;;;;;;;;;;;13.78;78.98;95344.56;5116372;28;1864;-47
2022/07/11 03:29:50;;;;;;;;;;;;;;;13.97;78.12;95340.59;5116721;28;1115;-47
2022/07/11 03:32:20;;;;;;;;;;;;;;;14.04;78.69;95339.72;5116330;28;1984;-47
2022/07/11 03:35:40;;;;;;;;;;;;;;;13.91;79.10;95341.31;5116376;28;1862;-47
2022/07/11 03:37:32;;;;;;;;;;;;;;;13.83;79.14;95339.50;5116358;28;1641;-47
2022/07/11 03:39:58;;;;;;;;;;;;;;;13.72;79.82;95346.09;5116539;28;1083;-47
2022/07/11 03:42:25;;;;;;;;;;;;;;;13.66;80.69;95352.19;5114069;28;1217;-47
2022/07/11 03:44:51;;;;;;;;;;;;;;;13.74;80.11;95352.13;5096042;28;1008;-47
2022/07/11 03:47:17;;;;;;;;;;;;;;;13.95;80.04;95350.69;5095680;28;1178;-47
2022/07/11 03:49:43;;;;;;;;;;;;;;;14.13;79.97;95347.72;5096201;28;976;-47
2022/07/11 03:52:09;;;;;;;;;;;;;;;14.21;80.18;95353.06;5095786;28;1979;-47
2022/07/11 03:54:36;;;;;;;;;;;;;;;14.04;81.06;95355.00;5096055;28;1000;-47
2022/07/11 03:57:02;;;;;;;;;;;;;;;14.10;80.62;95356.16;5095544;28;1017;-47
2022/07/11 03:59:28;;;;;;;;;;;;;;;14.30;80.24;95373.47;5095875;28;973;-47
2022/07/11 04:01:54;;;;;;;;;;;;;;;14.51;79.58;95372.81;5095561;28;1004;-47
2022/07/11 04:04:20;;;;;;;;;;;;;;;14.67;79.35;95384.53;5095324;28;992;-47
2022/07/11 04:06:46;;;;;;;;;;;;;;;14.55;79.24;95390.28;5095811;28;959;-47
2022/07/11 04:09:12;;;;;;;;;;;;;;;14.52;80.14;95392.50;5095579;28;1012;-47
2022/07/11 04:11:38;;;;;;;;;;;;;;;14.64;79.93;95385.69;5095472;28;1910;-47
2022/07/11 04:14:04;;;;;;;;;;;;;;;15.00;79.19;95388.56;5095171;28;1088;-48
2022/07/11 04:16:30;;;;;;;;;;;;;;;15.16;78.79;95389.47;5095462;28;1049;-47
2022/07/11 04:18:56;;;;;;;;;;;;;;;15.03;78.55;95388.22;5095495;28;992;-47
2022/07/11 04:21:22;;;;;;;;;;;;;;;15.06;79.85;95391.56;5095338;28;1033;-47
2022/07/11 04:23:48;;;;;;;;;;;;;;;15.40;78.46;95381.13;5095187;28;1004;-48
2022/07/11 04:26:14;;;;;;;;;;;;;;;15.88;75.44;95391.53;5095206;28;1986;-47
2022/07/11 04:28:40;;;;;;;;;;;;;;;16.13;75.50;95392.03;5095042;28;1110;-49
2022/07/11 04:31:06;;;;;;;;;;;;;;;16.29;76.39;95385.56;5095474;28;1906;-47
2022/07/11 04:33:32;;;;;;;;;;;;;;;16.49;74.96;95385.78;5094965;28;1099;-47
2022/07/11 04:35:58;;;;;;;;;;;;;;;16.59;74.94;95390.88;5095112;28;968;-47
2022/07/11 04:38:24;;;;;;;;;;;;;;;16.56;74.83;95388.53;5094948;28;1048;-47
2022/07/11 04:40:51;;;;;;;;;;;;;;;16.73;74.80;95391.81;5095095;28;1068;-47
2022/07/11 04:43:17;;;;;;;;;;;;;;;16.73;73.63;95389.13;5104412;28;1233;-47
2022/07/11 04:45:43;;;;;;;;;;;;;;;17.02;72.00;95400.84;5115291;28;1019;-47
2022/07/11 04:48:09;;;;;;;;;;;;;;;17.25;71.46;95408.72;5115246;28;1044;-47
2022/07/11 04:50:35;;;;;;;;;;;;;;;17.30;72.44;95404.41;5115369;28;1048;-47
2022/07/11 04:53:02;;;;;;;;;;;;;;;17.23;72.59;95411.63;5114802;28;1922;-47
2022/07/11 04:55:28;;;;;;;;;;;;;;;17.00;75.39;95408.28;5115046;28;1075;-47
2022/07/11 04:57:54;;;;;;;;;;;;;;;17.02;74.77;95417.06;5114907;28;1093;-47
2022/07/11 05:00:20;;;;;;;;;;;;;;;17.10;74.07;95408.81;5114873;28;952;-47
2022/07/11 05:02:46;;;;;;;;;;;;;;;17.16;73.99;95413.41;5114846;28;1020;-47
2022/07/11 05:05:12;;;;;;;;;;;;;;;17.05;73.29;95417.47;5114519;28;1032;-47
2022/07/11 05:07:38;;;;;;;;;;;;;;;17.10;73.56;95408.81;5114883;28;1052;-47
2022/07/11 05:10:04;;;;;;;;;;;;;;;17.39;72.52;95423.16;5114681;28;1111;-47
2022/07/11 05:12:30;;;;;;;;;;;;;;;17.57;70.90;95418.09;5114782;28;1913;-48
2022/07/11 05:14:58;;;;;;;;;;;;;;;17.72;68.76;95429.63;5114414;28;1088;-47
2022/07/11 05:17:27;;;;;;;;;;;;;;;17.91;68.34;95424.56;5114142;28;961;-48
2022/07/11 05:19:53;;;;;;;;;;;;;;;17.94;68.87;95418.75;5114695;28;960;-48
2022/07/11 05:22:19;;;;;;;;;;;;;;;18.19;67.01;95429.06;5114703;28;973;-48
2022/07/11 05:24:45;;;;;;;;;;;;;;;18.85;65.02;95426.56;5114510;28;1057;-48
2022/07/11 05:27:11;;;;;;;;;;;;;;;20.03;61.79;95425.06;5114478;28;1075;-48
2022/07/11 05:29:37;;;;;;;;;;;;;;;21.00;56.82;95416.88;5114227;28;1036;-48
2022/07/11 05:32:04;;;;;;;;;;;;;;;21.39;56.12;95425.78;5114517;28;1906;-49
2022/07/11 05:34:29;;;;;;;;;;;;;;;21.78;55.20;95429.25;5114193;28;992;-49
2022/07/11 05:36:55;;;;;;;;;;;;;;;21.64;55.44;95425.81;5114322;28;1099;-48
2022/07/11 05:39:22;;;;;;;;;;;;;;;21.20;56.30;95419.47;5114151;28;1032;-49
2022/07/11 05:41:51;;;;;;;;;;;;;;;20.67;59.03;95417.94;5114378;28;920;-48
2022/07/11 05:44:18;;;;;;;;;;;;;;;20.44;60.27;95419.25;5095653;28;1221;-48
2022/07/11 05:46:44;;;;;;;;;;;;;;;20.39;61.38;95416.34;5093825;28;997;-48
2022/07/11 05:49:10;;;;;;;;;;;;;;;20.36;60.80;95418.69;5093520;28;1103;-48
2022/07/11 05:51:36;;;;;;;;;;;;;;;20.24;59.48;95415.78;5093791;28;1917;-48
2022/07/11 05:54:02;;;;;;;;;;;;;;;20.18;58.84;95422.09;5093552;28;1021;-49
2022/07/11 05:56:29;;;;;;;;;;;;;;;20.21;58.95;95425.22;5093688;28;1972;-48
2022/07/11 05:58:56;;;;;;;;;;;;;;;20.25;60.75;95425.63;5093424;28;1080;-48
2022/07/11 06:01:22;;;;;;;;;;;;;;;20.45;60.24;95425.50;5093767;28;966;-48
2022/07/11 06:03:48;;;;;;;;;;;;;;;20.45;60.76;95423.66;5093385;28;969;-48
2022/07/11 06:06:16;;;;;;;;;;;;;;;20.62;59.83;95420.44;5075594;28;1045;-48
2022/07/11 06:08:43;;;;;;;;;;;;;;;20.83;57.90;95420.13;5093462;28;966;-47
2022/07/11 06:11:12;;;;;;;;;;;;;;;20.94;57.97;95415.03;5093333;28;1997;-47
2022/07/11 06:13:39;;;;;;;;;;;;;;;20.95;57.68;95422.16;5093188;28;1084;-48
2022/07/11 06:16:06;;;;;;;;;;;;;;;20.93;56.71;95418.81;5093579;28;965;-47
2022/07/11 06:18:33;;;;;;;;;;;;;;;21.02;56.40;95425.66;5093617;28;969;-48
2022/07/11 06:20:59;;;;;;;;;;;;;;;21.22;56.76;95422.78;5093293;28;1857;-48
2022/07/11 06:23:25;;;;;;;;;;;;;;;21.38;52.06;95421.41;5093497;28;951;-48
2022/07/11 06:25:51;;;;;;;;;;;;;;;21.48;51.43;95421.78;5093228;28;1055;-49
2022/07/11 06:28:17;;;;;;;;;;;;;;;21.60;51.02;95424.59;5095733;28;1067;-48
2022/07/11 06:30:44;;;;;;;;;;;;;;;21.53;51.24;95424.66;5097534;28;1894;-48
2022/07/11 06:33:10;;;;;;;;;;;;;;;21.49;48.46;95431.59;5097590;28;978;-48
2022/07/11 06:35:36;;;;;;;;;;;;;;;21.45;48.78;95427.66;5097065;28;1107;-48
2022/07/11 06:38:02;;;;;;;;;;;;;;;21.55;48.45;95425.28;5097304;28;1048;-48
2022/07/11 06:40:28;;;;;;;;;;;;;;;21.63;45.96;95426.88;5097162;28;1068;-48
2022/07/11 06:42:54;;;;;;;;;;;;;;;21.71;47.51;95425.75;5103607;28;1239;-48
2022/07/11 06:45:20;;;;;;;;;;;;;;;21.86;46.27;95428.13;5117680;28;966;-48
2022/07/11 06:47:47;;;;;;;;;;;;;;;21.90;45.63;95434.78;5117796;28;1019;-48
2022/07/11 06:50:13;;;;;;;;;;;;;;;21.90;44.31;95424.72;5117467;28;957;-48
2022/07/11 06:52:39;;;;;;;;;;;;;;;21.99;44.58;95428.81;5117401;28;1988;-48
2022/07/11 06:55:05;;;;;;;;;;;;;;;22.03;43.33;95424.56;5117186;28;1004;-48
2022/07/11 06:57:31;;;;;;;;;;;;;;;22.01;43.05;95429.41;5117316;28;1048;-48
2022/07/11 06:59:57;;;;;;;;;;;;;;;21.93;43.35;95423.41;5117431;28;1058;-48
2022/07/11 07:02:27;;;;;;;;;;;;;;;21.92;45.48;95425.31;5117274;28;1005;-48
2022/07/11 07:04:54;;;;;;;;;;;;;;;22.03;43.53;95413.69;5116978;28;1012;-48
2022/07/11 07:07:20;;;;;;;;;;;;;;;22.04;42.35;95414.50;5117249;28;957;-48
2022/07/11 07:09:47;;;;;;;;;;;;;;;22.13;43.56;95421.31;5116978;28;1109;-48
2022/07/11 07:12:13;;;;;;;;;;;;;;;22.16;41.93;95411.88;5116936;28;1901;-48
2022/07/11 07:14:39;;;;;;;;;;;;;;;22.32;43.71;95415.91;5116731;28;1123;-48
2022/07/11 07:17:05;;;;;;;;;;;;;;;22.42;42.32;95416.19;5117212;28;1027;-48
2022/07/11 07:19:31;;;;;;;;;;;;;;;22.49;41.95;95413.38;5116913;28;1111;-48
2022/07/11 07:21:58;;;;;;;;;;;;;;;22.52;40.98;95412.91;5117010;28;1052;-48
2022/07/11 07:24:24;;;;;;;;;;;;;;;22.58;42.18;95412.03;5116815;28;1000;-48
2022/07/11 07:26:50;;;;;;;;;;;;;;;22.72;42.49;95408.03;5116630;28;1080;-48
2022/07/11 07:29:16;;;;;;;;;;;;;;;22.86;40.97;95410.56;5116713;28;1009;-48
2022/07/11 07:31:42;;;;;;;;;;;;;;;22.95;40.97;95409.19;5116760;28;1910;-48
2022/07/11 07:34:09;;;;;;;;;;;;;;;22.99;40.95;95407.66;5116585;28;1181;-48
2022/07/11 07:36:35;;;;;;;;;;;;;;;23.07;39.53;95401.91;5116590;28;1041;-48
2022/07/11 07:39:02;;;;;;;;;;;;;;;23.10;40.57;95406.06;5115856;28;1044;-49
2022/07/11 07:41:28;;;;;;;;;;;;;;;23.24;40.79;95398.50;5116359;28;1032;-48
2022/07/11 07:43:54;;;;;;;;;;;;;;;23.11;40.25;95402.28;5101765;28;1157;-48
2022/07/11 07:46:20;;;;;;;;;;;;;;;23.04;40.96;95396.91;5095840;28;1024;-48
2022/07/11 07:48:46;;;;;;;;;;;;;;;23.15;39.33;95398.00;5096033;28;929;-48
2022/07/11 07:51:12;;;;;;;;;;;;;;;23.18;39.66;95398.38;5095663;28;1983;-48
2022/07/11 07:53:38;;;;;;;;;;;;;;;23.21;40.18;95396.25;5096008;28;1028;-48
2022/07/11 07:56:05;;;;;;;;;;;;;;;23.37;39.93;95407.31;5095624;28;950;-48
2022/07/11 07:58:31;;;;;;;;;;;;;;;23.53;39.58;95391.31;5096080;28;958;-48
2022/07/11 08:03:41;;;;;;;;;;;;;;;23.59;37.44;95398.53;5095831;28;1882;-48
2022/07/11 08:06:07;;;;;;;;;;;;;;;23.51;37.20;95401.63;5095360;28;958;-48
2022/07/11 08:08:33;;;;;;;;;;;;;;;23.55;37.36;95383.72;5095651;28;1045;-48
2022/07/11 08:11:01;;;;;;;;;;;;;;;23.66;37.66;95387.53;5095297;28;1898;-49
2022/07/11 08:13:28;;;;;;;;;;;;;;;23.84;37.32;95392.84;5095763;28;972;-48
2022/07/11 08:15:54;;;;;;;;;;;;;;;23.80;35.55;95393.59;5095286;28;1246;-48
2022/07/11 08:18:20;;;;;;;;;;;;;;;23.64;35.61;95381.44;5095592;28;983;-48
2022/07/11 08:20:46;;;;;;;;;;;;;;;23.74;37.00;95381.69;5095328;28;954;-48
2022/07/11 08:23:12;;;;;;;;;;;;;;;23.96;36.29;95376.50;5095236;28;1045;-48
2022/07/11 08:25:39;;;;;;;;;;;;;;;24.05;35.19;95382.41;5095302;28;1860;-48
2022/07/11 08:28:05;;;;;;;;;;;;;;;23.96;35.87;95381.94;5095354;28;995;-49
2022/07/11 08:30:31;;;;;;;;;;;;;;;24.07;35.34;95383.81;5095427;28;996;-48
2022/07/11 08:32:58;;;;;;;;;;;;;;;24.05;36.42;95374.19;5094962;28;2012;-49
2022/07/11 08:35:24;;;;;;;;;;;;;;;24.08;36.35;95371.00;5094913;28;1056;-48
2022/07/11 08:37:50;;;;;;;;;;;;;;;24.20;37.39;95376.44;5094937;28;1045;-48
2022/07/11 08:40:16;;;;;;;;;;;;;;;24.28;36.38;95374.16;5095216;28;952;-49
2022/07/11 08:42:43;;;;;;;;;;;;;;;24.36;35.70;95371.03;5099734;28;1154;-48
2022/07/11 08:45:13;;;;;;;;;;;;;;;24.44;37.21;95363.53;5115405;28;1039;-48
2022/07/11 08:47:39;;;;;;;;;;;;;;;24.52;35.26;95363.19;5115255;28;1052;-48
2022/07/11 08:50:06;;;;;;;;;;;;;;;24.53;34.77;95359.38;5115015;28;1027;-49
2022/07/11 08:52:33;;;;;;;;;;;;;;;24.44;34.87;95375.28;5114034;28;1906;-49
2022/07/11 08:54:59;;;;;;;;;;;;;;;24.48;35.43;95372.91;5115417;28;973;-49
2022/07/11 08:57:25;;;;;;;;;;;;;;;24.39;34.41;95363.44;5115107;28;1067;-48
2022/07/11 08:59:54;;;;;;;;;;;;;;;24.27;34.92;95377.13;5115181;28;1019;-48
2022/07/11 09:02:20;;;;;;;;;;;;;;;24.20;35.32;95363.59;5114754;28;1025;-48
2022/07/11 09:04:46;;;;;;;;;;;;;;;24.28;34.99;95373.31;5114829;28;964;-49
2022/07/11 09:07:13;;;;;;;;;;;;;;;24.27;36.27;95361.56;5114619;28;976;-49
2022/07/11 09:09:39;;;;;;;;;;;;;;;24.33;34.78;95363.31;5115026;28;925;-49
2022/07/11 09:12:14;;;;;;;;;;;;;;;24.34;35.64;95362.25;5114464;28;1913;-49
2022/07/11 09:14:45;;;;;;;;;;;;;;;24.35;35.38;95361.16;5114677;28;1230;-49
2022/07/11 09:17:11;;;;;;;;;;;;;;;24.41;34.86;95375.75;5114571;28;984;-49
2022/07/11 09:19:39;;;;;;;;;;;;;;;24.44;35.09;95367.09;5114663;28;950;-49
2022/07/11 09:27:44;;;;;;;;;;;;;;;24.45;35.08;95367.91;5114474;28;1067;-48
2022/07/11 09:30:23;;;;;;;;;;;;;;;24.38;34.28;95375.41;5114306;28;1115;-49
2022/07/11 09:32:56;;;;;;;;;;;;;;;24.32;35.61;95371.75;5114199;28;1913;-49
2022/07/11 09:35:23;;;;;;;;;;;;;;;24.39;35.00;95368.91;5114321;28;1027;-48
2022/07/11 09:37:49;;;;;;;;;;;;;;;24.44;35.56;95371.75;5114311;28;980;-49
2022/07/11 09:40:15;;;;;;;;;;;;;;;24.51;35.18;95367.81;5114313;28;1070;-48
2022/07/11 09:42:52;;;;;;;;;;;;;;;24.52;35.28;95368.63;5109719;28;1236;-49
2022/07/11 09:45:19;;;;;;;;;;;;;;;24.48;34.87;95362.78;5093867;28;1072;-48
2022/07/11 09:47:48;;;;;;;;;;;;;;;24.36;35.66;95381.97;5093741;28;1104;-49
2022/07/11 09:50:32;;;;;;;;;;;;;;;24.27;34.79;95371.66;5093716;28;1069;-48
2022/07/11 09:53:03;;;;;;;;;;;;;;;24.27;35.13;95377.13;5093495;28;1906;-49
2022/07/11 09:55:30;;;;;;;;;;;;;;;24.24;34.72;95375.69;5093945;28;965;-49
2022/07/11 09:57:56;;;;;;;;;;;;;;;24.15;35.22;95368.97;5093700;28;997;-49
2022/07/11 10:00:22;;;;;;;;;;;;;;;24.15;35.34;95360.78;5093575;28;1048;-49
2022/07/11 10:02:50;;;;;;;;;;;;;;;24.20;36.16;95370.97;5093280;28;1011;-48
2022/07/11 10:05:16;;;;;;;;;;;;;;;24.21;36.65;95373.47;5093392;28;1095;-49
2022/07/11 10:07:42;;;;;;;;;;;;;;;24.25;36.31;95360.97;5093432;28;970;-49
2022/07/11 10:10:10;;;;;;;;;;;;;;;24.34;34.94;95367.72;5093429;28;1067;-49
2022/07/11 10:12:36;;;;;;;;;;;;;;;24.25;35.22;95373.81;5093596;28;1910;-49
2022/07/11 10:18:51;;;;;;;;;;;;;;;24.20;35.84;95377.25;5113826;28;718;-49
2022/07/11 10:21:43;;;;;;;;;;;;;;;24.26;36.68;95375.47;5113930;28;1117;-49
2022/07/11 10:24:12;;;;;;;;;;;;;;;24.20;35.93;95374.53;5109865;28;1965;-49
2022/07/11 10:26:42;;;;;;;;;;;;;;;24.17;35.71;95366.81;5113682;28;1005;-48
2022/07/11 10:29:11;;;;;;;;;;;;;;;24.12;35.34;95361.25;5113428;28;1024;-49
2022/07/11 10:31:37;;;;;;;;;;;;;;;24.13;36.91;95361.00;5113850;28;1976;-49
2022/07/11 10:34:03;;;;;;;;;;;;;;;24.20;36.25;95365.50;5113156;28;1080;-49
2022/07/11 10:36:31;;;;;;;;;;;;;;;24.25;35.66;95362.88;5113771;28;1027;-49
2022/07/11 10:39:16;;;;;;;;;;;;;;;24.27;36.96;95372.50;5113471;28;949;-49
2022/07/11 10:41:42;;;;;;;;;;;;;;;24.30;36.93;95366.56;5113737;28;1012;-48
2022/07/11 10:44:08;;;;;;;;;;;;;;;24.27;35.51;95360.75;5113219;28;1216;-48
2022/07/11 10:46:35;;;;;;;;;;;;;;;24.24;35.42;95366.69;5113675;28;1056;-49
2022/07/11 10:49:01;;;;;;;;;;;;;;;24.26;36.20;95365.34;5113258;28;1317;-48
2022/07/11 10:51:27;;;;;;;;;;;;;;;24.23;36.56;95360.38;5113377;28;1902;-49
2022/07/11 10:53:53;;;;;;;;;;;;;;;24.33;36.15;95365.22;5113578;28;989;-49
2022/07/11 10:56:38;;;;;;;;;;;;;;;24.31;36.84;95368.19;5113610;28;956;-49
2022/07/11 10:59:15;;;;;;;;;;;;;;;24.36;35.57;95362.84;5113272;28;977;-48
2022/07/11 11:02:00;;;;;;;;;;;;;;;24.34;35.94;95364.16;5113498;28;966;-49
2022/07/11 11:04:47;;;;;;;;;;;;;;;24.33;35.68;95360.59;5113066;28;1024;-48
2022/07/11 11:07:28;;;;;;;;;;;;;;;24.42;35.50;95362.94;5113435;28;977;-48
2022/07/11 11:09:54;;;;;;;;;;;;;;;24.41;36.35;95364.00;5113273;28;991;-48
2022/07/11 11:12:40;;;;;;;;;;;;;;;24.54;37.19;95369.22;5113143;28;1909;-49
2022/07/11 11:15:25;;;;;;;;;;;;;;;24.33;35.67;95355.13;5114997;28;1919;-49
2022/07/11 11:17:51;;;;;;;;;;;;;;;24.18;35.91;95368.47;5117002;28;1226;-49
2022/07/11 11:20:31;;;;;;;;;;;;;;;24.21;35.19;95361.69;5116756;28;1142;-49
2022/07/11 11:23:10;;;;;;;;;;;;;;;24.32;36.54;95358.94;5116907;28;1052;-49
2022/07/11 11:25:36;;;;;;;;;;;;;;;24.47;36.04;95360.31;5117001;28;973;-49
2022/07/11 11:28:06;;;;;;;;;;;;;;;24.45;35.39;95357.81;5116805;28;1090;-48
2022/07/11 11:30:32;;;;;;;;;;;;;;;24.33;35.90;95363.31;5116676;28;1115;-48
2022/07/11 11:32:58;;;;;;;;;;;;;;;24.32;35.53;95356.22;5116817;28;1979;-49
2022/07/11 11:35:24;;;;;;;;;;;;;;;24.29;35.08;95353.13;5116225;28;950;-48
2022/07/11 11:37:51;;;;;;;;;;;;;;;24.41;35.93;95355.81;5116700;28;1032;-48
2022/07/11 11:40:17;;;;;;;;;;;;;;;24.62;36.35;95354.34;5116390;28;1012;-49
2022/07/11 11:42:43;;;;;;;;;;;;;;;24.70;36.27;95354.78;5121675;27;1201;-52
2022/07/11 11:45:11;;;;;;;;;;;;;;;24.55;34.71;95363.53;5136837;27;1226;-48
2022/07/11 11:47:47;;;;;;;;;;;;;;;24.36;34.50;95354.66;5137102;27;1025;-49
2022/07/11 11:50:13;;;;;;;;;;;;;;;24.38;35.42;95361.75;5119255;27;2558;-48
2022/07/11 11:52:40;;;;;;;;;;;;;;;24.35;34.90;95357.63;5116209;28;1898;-49
2022/07/11 11:55:06;;;;;;;;;;;;;;;24.28;35.18;95346.84;5115714;28;1028;-48
2022/07/11 11:57:33;;;;;;;;;;;;;;;24.33;35.45;95344.19;5116407;28;1090;-48
2022/07/11 11:59:58;;;;;;;;;;;;;;;24.45;35.93;95348.78;5116127;28;1830;-49
2022/07/11 12:02:29;;;;;;;;;;;;;;;24.42;36.34;95347.38;5131985;27;3146;-48
2022/07/11 12:04:59;;;;;;;;;;;;;;;24.17;34.04;95348.53;5115582;28;988;-48
2022/07/11 12:07:29;;;;;;;;;;;;;;;24.04;35.64;95357.00;5116018;28;2849;-48
2022/07/11 12:09:55;;;;;;;;;;;;;;;24.11;35.31;95356.84;5116131;28;976;-48
2022/07/11 12:15:22;;;;;;;;;;;;;;;24.04;35.87;95353.44;5115728;28;1020;-49
2022/07/11 12:17:49;;;;;;;;;;;;;;;23.93;35.45;95342.28;5102135;28;1466;-49
2022/07/11 12:20:32;;;;;;;;;;;;;;;24.07;36.72;95352.94;5095078;28;2932;-49
2022/07/11 12:22:58;;;;;;;;;;;;;;;24.09;36.49;95348.06;5095726;28;1646;-49
2022/07/11 12:25:24;;;;;;;;;;;;;;;23.85;36.25;95345.38;5107050;28;1517;-49
2022/07/11 12:27:56;;;;;;;;;;;;;;;23.70;36.47;95351.31;5095343;28;1131;-49
2022/07/11 12:30:25;;;;;;;;;;;;;;;23.73;36.08;95348.09;5106995;28;1637;-49
2022/07/11 12:33:03;;;;;;;;;;;;;;;23.84;36.52;95343.72;5115659;28;1985;-49
2022/07/11 12:35:29;;;;;;;;;;;;;;;23.66;35.42;95354.75;5115183;28;1061;-49
2022/07/11 12:37:55;;;;;;;;;;;;;;;23.76;36.57;95346.78;5115576;28;1075;-52
2022/07/11 12:40:21;;;;;;;;;;;;;;;24.01;36.88;95346.53;5115201;28;1068;-49
2022/07/11 12:42:48;;;;;;;;;;;;;;;24.19;36.15;95345.56;5106834;28;1500;-49
2022/07/11 12:45:15;;;;;;;;;;;;;;;24.19;35.82;95340.09;5115345;28;953;-48
2022/07/11 12:47:42;;;;;;;;;;;;;;;24.10;35.98;95342.38;5115418;28;1028;-48
2022/07/11 12:50:15;;;;;;;;;;;;;;;24.11;35.54;95344.03;5115109;28;1024;-48
2022/07/11 12:52:46;;;;;;;;;;;;;;;24.01;36.20;95346.53;5115124;28;1976;-48
2022/07/11 12:55:27;;;;;;;;;;;;;;;23.79;35.04;95340.91;5115212;28;1076;-48
2022/07/11 12:58:03;;;;;;;;;;;;;;;23.71;35.55;95338.47;5094897;28;1047;-48
2022/07/11 13:00:30;;;;;;;;;;;;;;;23.81;36.53;95333.28;5094302;28;1092;-48
2022/07/11 13:02:56;;;;;;;;;;;;;;;24.04;35.64;95329.69;5094238;28;1037;-48
2022/07/11 13:05:22;;;;;;;;;;;;;;;24.21;36.05;95339.81;5093345;28;962;-48
2022/07/11 13:10:51;;;;;;;;;;;;;;;24.14;35.69;95338.06;5094325;28;1033;-48
2022/07/11 13:13:18;;;;;;;;;;;;;;;24.20;35.33;95339.00;5094363;28;1981;-49
2022/07/11 13:15:46;;;;;;;;;;;;;;;24.24;36.25;95340.19;5094353;28;1025;-48
2022/07/11 13:18:13;;;;;;;;;;;;;;;23.86;35.44;95338.03;5094196;28;1237;-48
2022/07/11 13:20:40;;;;;;;;;;;;;;;23.94;35.35;95341.22;5094429;28;1964;-48